Time;durP1;ratioP1;P1;durP2;ratioP2;P2;SDS_P1;SDS_P2;PMS_P1;PMS_P2;Temp;Humidity;BMP_temperature;BMP_pressure;BME280_temperature;BME280_humidity;BME280_pressure;Samples;Min_cycle;Max_cycle;Signal;HPM_P1;HPM_P2
2022/06/18 00:01:49;;;;;;;5.90;3.63;;;17.50;99.90;;;;;;4917310;29;20553;-81
2022/06/18 00:04:19;;;;;;;4.40;3.60;;;17.50;99.90;;;;;;4916922;29;20282;-81
2022/06/18 00:06:50;;;;;;;4.63;3.50;;;17.50;99.90;;;;;;4900070;29;20211;-81
2022/06/18 00:09:20;;;;;;;6.33;5.77;;;17.40;99.90;;;;;;4917146;29;20199;-81
2022/06/18 00:14:32;;;;;;;5.27;4.77;;;17.40;99.90;;;;;;4900120;29;20220;-81
2022/06/18 00:17:00;;;;;;;3.87;3.47;;;17.40;99.90;;;;;;4894038;29;20218;-81
2022/06/18 00:19:27;;;;;;;4.00;3.50;;;17.30;99.90;;;;;;4896241;29;20641;-81
2022/06/18 00:21:54;;;;;;;4.43;3.70;;;17.30;99.90;;;;;;4914824;29;20210;-81
2022/06/18 00:24:21;;;;;;;6.60;6.10;;;17.30;99.90;;;;;;4916635;29;20271;-81
2022/06/18 00:26:48;;;;;;;5.37;4.83;;;17.20;99.90;;;;;;4897060;29;20208;-81
2022/06/18 00:29:19;;;;;;;6.43;5.83;;;17.20;99.90;;;;;;4899930;29;20204;-81
2022/06/18 00:31:46;;;;;;;6.43;5.90;;;17.20;99.90;;;;;;4920090;29;20210;-81
2022/06/18 00:34:15;;;;;;;6.43;5.83;;;17.20;99.90;;;;;;4899359;29;20243;-81
2022/06/18 00:36:43;;;;;;;5.93;5.53;;;17.10;99.90;;;;;;4898630;29;20208;-81
2022/06/18 00:39:16;;;;;;;5.53;4.57;;;17.10;99.90;;;;;;4908199;29;20255;-82
2022/06/18 00:41:46;;;;;;;4.23;3.83;;;17.10;99.90;;;;;;4896047;29;20208;-81
2022/06/18 00:44:22;;;;;;;6.30;5.70;;;17.00;99.90;;;;;;4889930;29;20236;-81
2022/06/18 00:46:58;;;;;;;5.73;5.23;;;17.00;99.90;;;;;;4902566;29;20218;-81
2022/06/18 00:49:34;;;;;;;5.90;5.40;;;17.00;99.90;;;;;;4910457;29;20202;-81
2022/06/18 00:52:07;;;;;;;5.23;4.77;;;16.90;99.90;;;;;;4916680;29;20266;-81
2022/06/18 00:54:41;;;;;;;5.43;5.00;;;16.90;99.90;;;;;;4899068;29;20226;-81
2022/06/18 00:57:13;;;;;;;5.73;4.47;;;16.80;99.90;;;;;;4908299;29;20196;-81
2022/06/18 00:59:44;;;;;;;4.47;3.97;;;16.70;99.90;;;;;;4916463;29;20211;-81
2022/06/18 01:02:18;;;;;;;6.30;5.70;;;16.70;99.90;;;;;;4907605;29;20260;-81
2022/06/18 01:04:46;;;;;;;6.57;5.97;;;16.70;99.90;;;;;;4898849;29;20286;-81
2022/06/18 01:07:19;;;;;;;5.93;5.40;;;16.70;99.90;;;;;;4899236;29;20673;-81
2022/06/18 01:09:48;;;;;;;7.30;6.60;;;16.70;99.90;;;;;;4888513;29;20208;-81
2022/06/18 01:12:15;;;;;;;7.37;6.77;;;16.70;99.90;;;;;;4898988;29;20204;-81
2022/06/18 01:14:43;;;;;;;7.00;6.40;;;16.70;99.90;;;;;;4899866;29;20246;-80
2022/06/18 01:17:10;;;;;;;5.60;4.90;;;16.60;99.90;;;;;;4898977;29;20677;-81
2022/06/18 01:19:40;;;;;;;5.50;5.00;;;16.60;99.90;;;;;;4889896;29;20227;-81
2022/06/18 01:22:29;;;;;;;4.00;3.50;;;16.60;99.90;;;;;;4914638;29;20201;-81
2022/06/18 01:25:05;;;;;;;3.50;3.20;;;16.50;99.90;;;;;;4897327;29;20240;-81
2022/06/18 01:27:32;;;;;;;6.57;6.03;;;16.50;99.90;;;;;;4898942;29;20218;-82
2022/06/18 01:29:59;;;;;;;6.30;5.80;;;16.40;99.90;;;;;;4898504;29;20206;-81
2022/06/18 01:32:32;;;;;;;6.27;5.77;;;16.40;99.90;;;;;;4898864;29;20229;-81
2022/06/18 01:35:00;;;;;;;4.60;4.20;;;16.40;99.90;;;;;;4900178;29;20298;-81
2022/06/18 01:37:27;;;;;;;6.00;5.50;;;16.30;99.90;;;;;;4900091;29;20294;-81
2022/06/18 01:39:58;;;;;;;6.00;5.50;;;16.40;99.90;;;;;;4901607;29;20302;-81
2022/06/18 01:42:30;;;;;;;5.70;5.30;;;16.30;99.90;;;;;;4900850;29;20301;-82
2022/06/18 01:45:00;;;;;;;6.37;5.77;;;16.30;99.90;;;;;;4903781;29;20234;-78
2022/06/18 01:47:42;;;;;;;6.60;6.00;;;16.30;99.90;;;;;;4901772;29;20621;-81
2022/06/18 01:50:16;;;;;;;6.70;5.63;;;16.30;99.90;;;;;;4898424;29;20230;-81
2022/06/18 01:52:49;;;;;;;5.97;5.57;;;16.20;99.90;;;;;;4902121;29;20210;-81
2022/06/18 01:55:19;;;;;;;6.87;6.30;;;16.20;99.90;;;;;;4897589;29;20223;-81
2022/06/18 01:57:54;;;;;;;6.50;5.90;;;16.10;99.90;;;;;;4915087;29;20243;-81
2022/06/18 02:00:25;;;;;;;6.13;5.57;;;16.10;99.90;;;;;;4897725;29;20242;-81
2022/06/18 02:03:01;;;;;;;6.23;5.70;;;16.10;99.90;;;;;;4894713;29;20199;-81
2022/06/18 02:06:04;;;;;;;6.10;5.60;;;16.10;99.90;;;;;;4893568;29;20230;-81
2022/06/18 02:08:31;;;;;;;6.53;5.93;;;16.10;99.90;;;;;;4906215;29;20262;-81
2022/06/18 02:11:01;;;;;;;6.00;5.50;;;16.00;99.90;;;;;;4912808;29;20207;-83
2022/06/18 02:13:33;;;;;;;6.73;6.13;;;15.90;99.90;;;;;;4897141;29;20645;-81
2022/06/18 02:16:02;;;;;;;4.10;3.20;;;16.00;99.90;;;;;;4895884;29;20229;-81
2022/06/18 02:18:30;;;;;;;3.37;3.00;;;16.00;99.90;;;;;;4896714;29;20733;-81
2022/06/18 02:20:58;;;;;;;4.07;3.17;;;16.00;99.90;;;;;;4889948;29;20219;-81
2022/06/18 02:23:26;;;;;;;4.90;4.00;;;15.90;99.90;;;;;;4898347;29;20244;-81
2022/06/18 02:25:54;;;;;;;6.50;6.00;;;15.90;99.90;;;;;;4887531;29;20232;-80
2022/06/18 02:28:24;;;;;;;5.87;5.47;;;15.90;99.90;;;;;;4893076;29;20561;-81
2022/06/18 02:30:56;;;;;;;3.60;3.30;;;15.90;99.90;;;;;;4896600;29;20207;-81
2022/06/18 02:33:31;;;;;;;4.73;3.20;;;15.90;99.90;;;;;;4895556;29;20297;-81
2022/06/18 02:36:05;;;;;;;3.10;2.80;;;15.90;99.90;;;;;;4894648;29;20225;-81
2022/06/18 02:38:31;;;;;;;6.07;3.20;;;15.80;99.90;;;;;;4911648;29;20210;-80
2022/06/18 02:40:58;;;;;;;3.77;3.47;;;15.80;99.90;;;;;;4897315;29;20207;-81
2022/06/18 02:43:25;;;;;;;3.20;2.67;;;15.90;99.90;;;;;;4899047;29;20591;-80
2022/06/18 02:45:57;;;;;;;3.90;3.23;;;15.80;99.90;;;;;;4900009;29;20239;-79
2022/06/18 02:48:28;;;;;;;5.70;5.20;;;15.80;99.90;;;;;;4900890;29;20668;-82
2022/06/18 02:50:58;;;;;;;6.30;5.80;;;15.80;99.90;;;;;;4899580;29;20692;-83
2022/06/18 02:53:26;;;;;;;7.20;6.60;;;15.90;99.90;;;;;;4915389;29;20223;-81
2022/06/18 02:55:56;;;;;;;6.60;6.10;;;15.80;99.90;;;;;;4902766;29;20226;-79
2022/06/18 02:58:25;;;;;;;6.53;6.03;;;15.70;99.90;;;;;;4842184;29;1078211;-80
2022/06/18 03:00:57;;;;;;;7.47;6.90;;;15.70;99.90;;;;;;4901951;29;20206;-79
2022/06/18 03:03:28;;;;;;;5.83;5.47;;;15.60;99.90;;;;;;4913585;29;20266;-79
2022/06/18 03:05:54;;;;;;;3.00;2.80;;;15.60;99.90;;;;;;4892152;29;20225;-81
2022/06/18 03:08:23;;;;;;;2.70;2.50;;;15.60;99.90;;;;;;4893663;29;20240;-81
2022/06/18 03:13:38;;;;;;;4.23;3.67;;;15.60;99.90;;;;;;4898917;29;20208;-79
2022/06/18 03:16:10;;;;;;;3.10;2.80;;;15.60;99.90;;;;;;4902098;29;20221;-80
2022/06/18 03:18:39;;;;;;;3.20;2.90;;;15.60;99.90;;;;;;4902178;29;20209;-79
2022/06/18 03:21:15;;;;;;;2.97;2.60;;;15.50;99.90;;;;;;4898823;29;20207;-79
2022/06/18 03:23:42;;;;;;;2.60;2.40;;;15.60;99.90;;;;;;4903817;29;20292;-79
2022/06/18 03:26:10;;;;;;;3.90;3.53;;;15.50;99.90;;;;;;4911308;29;20225;-79
2022/06/18 03:28:37;;;;;;;4.30;4.00;;;15.50;99.90;;;;;;4895501;29;20683;-79
2022/06/18 03:31:05;;;;;;;4.70;4.17;;;15.50;99.90;;;;;;4900912;29;20305;-79
2022/06/18 03:33:34;;;;;;;3.50;3.20;;;15.60;99.90;;;;;;4900015;29;20203;-80
2022/06/18 03:36:02;;;;;;;3.13;2.83;;;15.50;99.90;;;;;;4900834;29;20595;-79
2022/06/18 03:38:29;;;;;;;2.90;2.70;;;15.60;99.90;;;;;;4900155;29;20209;-79
2022/06/18 03:40:56;;;;;;;3.33;3.03;;;15.50;99.90;;;;;;4900221;29;20229;-79
2022/06/18 03:43:25;;;;;;;3.60;3.30;;;15.50;99.90;;;;;;4898965;29;20697;-79
2022/06/18 03:45:58;;;;;;;3.77;3.37;;;15.50;99.90;;;;;;4899860;29;20282;-79
2022/06/18 03:48:29;;;;;;;4.83;4.43;;;15.60;99.90;;;;;;4911829;29;20589;-79
2022/06/18 03:50:57;;;;;;;3.83;2.90;;;15.70;99.90;;;;;;4900011;29;20216;-79
2022/06/18 03:53:24;;;;;;;3.20;2.90;;;15.70;99.90;;;;;;4898646;29;20233;-80
2022/06/18 03:55:51;;;;;;;2.90;2.70;;;15.80;99.90;;;;;;4900916;29;20223;-78
2022/06/18 03:58:19;;;;;;;4.60;4.30;;;15.90;99.90;;;;;;4894832;29;20300;-79
2022/06/18 04:00:46;;;;;;;3.40;3.10;;;16.00;99.90;;;;;;4896649;29;20204;-78
2022/06/18 04:03:13;;;;;;;3.60;3.30;;;16.00;99.90;;;;;;4917873;29;20198;-78
2022/06/18 04:05:41;;;;;;;5.33;4.20;;;16.20;99.90;;;;;;4909306;29;20673;-79
2022/06/18 04:08:14;;;;;;;3.70;3.33;;;16.30;99.90;;;;;;4900043;29;20216;-78
2022/06/18 04:11:07;;;;;;;4.40;4.00;;;16.30;99.90;;;;;;4913275;29;20722;-79
2022/06/18 04:13:34;;;;;;;4.87;3.60;;;16.40;99.90;;;;;;4900590;29;20209;-79
2022/06/18 04:16:11;;;;;;;2.93;2.60;;;16.50;99.90;;;;;;4899330;29;20224;-80
2022/06/18 04:18:39;;;;;;;3.20;2.90;;;16.70;99.90;;;;;;4899573;29;20836;-79
2022/06/18 04:21:09;;;;;;;3.90;3.60;;;16.80;99.90;;;;;;4899392;29;20333;-79
2022/06/18 04:23:41;;;;;;;6.10;5.70;;;16.90;99.90;;;;;;4899156;29;20234;-78
2022/06/18 04:26:08;;;;;;;3.57;3.10;;;17.00;99.90;;;;;;4886450;29;20597;-77
2022/06/18 04:28:35;;;;;;;3.90;3.13;;;17.10;99.90;;;;;;4900081;29;20204;-79
2022/06/18 04:31:09;;;;;;;3.97;3.67;;;17.20;99.90;;;;;;4900638;29;20208;-79
2022/06/18 04:33:38;;;;;;;5.20;4.80;;;17.40;99.90;;;;;;4902181;29;20207;-79
2022/06/18 04:36:34;;;;;;;4.90;4.50;;;17.60;99.90;;;;;;4894514;29;20336;-79
2022/06/18 04:39:11;;;;;;;3.73;3.43;;;17.90;99.90;;;;;;4896457;29;20209;-78
2022/06/18 04:41:41;;;;;;;5.23;4.83;;;18.10;99.90;;;;;;4910584;29;20185;-78
2022/06/18 04:44:15;;;;;;;4.90;4.50;;;18.20;99.90;;;;;;4887989;29;20216;-79
2022/06/18 04:46:49;;;;;;;5.30;4.90;;;18.40;99.90;;;;;;4896267;29;20589;-78
2022/06/18 04:49:17;;;;;;;5.27;4.77;;;18.70;99.90;;;;;;4899491;29;20592;-76
2022/06/18 04:51:44;;;;;;;5.77;5.00;;;18.90;99.90;;;;;;4897259;29;20679;-79
2022/06/18 04:54:13;;;;;;;7.13;5.80;;;19.10;99.90;;;;;;4884238;29;20216;-80
2022/06/18 04:56:40;;;;;;;6.27;5.67;;;19.40;99.90;;;;;;4904080;29;20650;-80
2022/06/18 04:59:07;;;;;;;7.03;6.43;;;19.50;99.90;;;;;;4914887;29;20710;-78
2022/06/18 05:01:34;;;;;;;7.43;5.37;;;19.60;99.90;;;;;;4899923;29;20221;-80
2022/06/18 05:04:20;;;;;;;6.13;5.40;;;19.90;99.90;;;;;;4911808;29;20240;-79
2022/06/18 05:07:09;;;;;;;6.67;5.13;;;20.00;99.90;;;;;;4911446;29;20232;-79
2022/06/18 05:09:50;;;;;;;5.40;4.80;;;20.10;99.90;;;;;;4898441;29;20222;-80
2022/06/18 05:12:40;;;;;;;4.40;4.00;;;20.30;99.90;;;;;;4893843;29;20307;-81
2022/06/18 05:15:40;;;;;;;5.17;4.73;;;20.50;99.90;;;;;;4897935;29;20604;-80
2022/06/18 05:18:07;;;;;;;5.63;4.53;;;20.80;99.90;;;;;;4898114;29;20200;-80
2022/06/18 05:20:35;;;;;;;4.80;4.50;;;21.10;99.90;;;;;;4896388;29;20624;-79
2022/06/18 05:23:02;;;;;;;4.63;4.33;;;21.30;99.90;;;;;;4894633;29;20588;-80
2022/06/18 05:25:31;;;;;;;3.93;3.53;;;21.50;99.90;;;;;;4901255;29;20231;-80
2022/06/18 05:27:58;;;;;;;3.60;3.30;;;21.50;99.90;;;;;;4897378;29;20676;-80
2022/06/18 05:30:31;;;;;;;5.37;4.87;;;21.50;99.90;;;;;;4898513;29;20204;-79
2022/06/18 05:33:00;;;;;;;4.90;4.50;;;21.60;99.90;;;;;;4897851;29;20457;-78
2022/06/18 05:35:30;;;;;;;5.50;5.10;;;21.80;99.90;;;;;;4906970;29;20247;-80
2022/06/18 05:37:56;;;;;;;6.43;5.83;;;21.90;99.90;;;;;;4900908;29;20756;-80
2022/06/18 05:40:24;;;;;;;5.73;5.33;;;22.20;99.90;;;;;;4899461;29;20570;-79
2022/06/18 05:42:54;;;;;;;5.50;5.10;;;22.60;99.90;;;;;;4907237;29;20586;-79
2022/06/18 05:45:22;;;;;;;6.10;4.30;;;23.20;99.90;;;;;;4898724;29;20227;-79
2022/06/18 05:47:49;;;;;;;5.10;4.70;;;23.70;99.90;;;;;;4916902;29;20231;-78
2022/06/18 05:50:19;;;;;;;3.50;3.20;;;24.10;99.90;;;;;;4896683;29;20228;-78
2022/06/18 05:52:48;;;;;;;3.80;3.50;;;24.50;99.90;;;;;;4896648;29;20446;-80
2022/06/18 05:55:44;;;;;;;3.63;3.33;;;24.90;99.90;;;;;;4894313;29;20248;-80
2022/06/18 05:58:24;;;;;;;4.50;2.80;;;25.30;99.90;;;;;;4898523;29;20237;-80
2022/06/18 06:00:54;;;;;;;4.33;3.87;;;25.80;99.90;;;;;;4899826;29;20206;-80
2022/06/18 06:03:21;;;;;;;2.93;2.73;;;26.00;99.90;;;;;;4895212;29;20204;-80
2022/06/18 06:05:49;;;;;;;3.40;3.00;;;26.20;99.90;;;;;;4901101;29;20286;-80
2022/06/18 06:08:17;;;;;;;5.17;4.80;;;26.50;99.90;;;;;;4904963;29;20204;-78
2022/06/18 06:13:30;;;;;;;6.40;5.50;;;26.90;99.90;;;;;;4893002;29;20207;-82
2022/06/18 06:15:57;;;;;;;5.00;4.60;;;26.90;98.80;;;;;;4893352;29;20224;-81
2022/06/18 06:18:25;;;;;;;5.03;4.63;;;27.00;99.70;;;;;;4916724;29;20199;-81
2022/06/18 06:20:54;;;;;;;4.90;4.50;;;27.10;98.60;;;;;;4901898;29;20211;-82
2022/06/18 06:23:21;;;;;;;5.37;4.90;;;27.10;99.30;;;;;;4897563;29;20204;-81
2022/06/18 06:25:50;;;;;;;5.13;4.73;;;27.20;98.90;;;;;;4918543;29;20295;-82
2022/06/18 06:28:18;;;;;;;5.60;4.80;;;27.40;98.90;;;;;;4919320;29;20200;-81
2022/06/18 06:30:47;;;;;;;4.83;4.50;;;27.60;99.00;;;;;;4902279;29;20216;-81
2022/06/18 06:33:14;;;;;;;5.10;4.70;;;27.80;98.20;;;;;;4918379;29;20200;-81
2022/06/18 06:35:42;;;;;;;5.37;4.87;;;28.00;98.10;;;;;;4898909;29;20605;-78
2022/06/18 06:38:10;;;;;;;5.30;4.80;;;28.00;97.60;;;;;;4893476;29;20219;-82
2022/06/18 06:40:37;;;;;;;4.73;4.43;;;28.00;97.40;;;;;;4903290;29;20638;-82
2022/06/18 06:43:07;;;;;;;4.77;4.47;;;28.20;98.00;;;;;;4904427;29;20272;-82
2022/06/18 06:45:35;;;;;;;5.03;4.63;;;28.40;97.30;;;;;;4890087;29;20229;-82
2022/06/18 06:48:04;;;;;;;5.10;4.60;;;28.50;97.60;;;;;;4904258;29;20212;-82
2022/06/18 06:50:31;;;;;;;5.50;4.93;;;28.70;96.90;;;;;;4899874;29;20208;-80
2022/06/18 06:52:58;;;;;;;5.50;5.00;;;28.80;96.70;;;;;;4917984;29;20498;-81
2022/06/18 06:58:12;;;;;;;5.10;4.67;;;28.80;96.30;;;;;;4899058;29;20219;-81
2022/06/18 07:00:43;;;;;;;5.23;4.83;;;28.80;97.10;;;;;;4903090;29;20204;-82
2022/06/18 07:03:12;;;;;;;5.73;5.33;;;29.00;97.80;;;;;;4914461;29;20207;-81
2022/06/18 07:05:38;;;;;;;5.70;5.30;;;29.20;97.00;;;;;;4903444;29;20643;-80
2022/06/18 07:08:06;;;;;;;5.93;4.70;;;29.50;96.90;;;;;;4901134;29;20342;-81
2022/06/18 07:10:33;;;;;;;4.90;4.50;;;29.60;96.10;;;;;;4918070;29;20211;-80
2022/06/18 07:12:59;;;;;;;5.40;4.90;;;29.70;96.40;;;;;;4901058;29;20664;-80
2022/06/18 07:15:26;;;;;;;6.17;4.83;;;29.80;96.00;;;;;;4900997;29;20284;-80
2022/06/18 07:17:53;;;;;;;5.23;4.73;;;29.70;95.70;;;;;;4918255;29;20267;-80
2022/06/18 07:20:22;;;;;;;5.00;4.50;;;29.90;96.00;;;;;;4904373;29;20764;-85
2022/06/18 07:22:49;;;;;;;4.93;4.40;;;30.00;95.20;;;;;;4916147;29;20223;-80
2022/06/18 07:25:18;;;;;;;6.00;5.60;;;30.00;95.30;;;;;;4919238;29;20275;-80
2022/06/18 07:27:45;;;;;;;5.60;5.20;;;30.00;95.50;;;;;;4916636;29;20196;-80
2022/06/18 07:30:12;;;;;;;5.37;5.07;;;29.70;96.60;;;;;;4901482;29;20200;-80
2022/06/18 07:32:45;;;;;;;6.20;5.80;;;29.90;95.90;;;;;;4885311;29;20212;-78
2022/06/18 07:35:18;;;;;;;6.60;6.10;;;30.00;94.60;;;;;;4912297;29;20718;-80
2022/06/18 07:37:46;;;;;;;5.87;5.47;;;29.80;95.50;;;;;;4901467;29;20207;-81
2022/06/18 07:40:14;;;;;;;6.13;5.37;;;30.00;95.90;;;;;;4917487;29;20192;-82
2022/06/18 07:42:43;;;;;;;6.07;5.67;;;30.20;95.90;;;;;;4902191;29;20669;-81
2022/06/18 07:45:16;;;;;;;5.30;4.90;;;30.20;95.80;;;;;;4909006;29;20261;-81
2022/06/18 07:47:45;;;;;;;6.40;5.90;;;30.30;95.40;;;;;;4895387;29;20207;-80
2022/06/18 07:50:12;;;;;;;6.57;6.07;;;30.40;95.00;;;;;;4898663;29;20251;-81
2022/06/18 07:52:39;;;;;;;5.77;5.37;;;30.40;95.30;;;;;;4900412;29;20208;-80
2022/06/18 07:55:11;;;;;;;6.40;5.90;;;30.40;94.30;;;;;;4916860;29;20215;-80
2022/06/18 07:57:38;;;;;;;6.20;5.70;;;30.60;95.50;;;;;;4916948;29;20291;-81
2022/06/18 08:00:07;;;;;;;6.60;6.00;;;30.70;95.50;;;;;;4892260;29;20290;-81
2022/06/18 08:02:40;;;;;;;5.90;5.40;;;31.00;94.60;;;;;;4916704;29;20216;-80
2022/06/18 08:05:08;;;;;;;6.70;6.20;;;31.10;94.80;;;;;;4912152;29;20223;-80
2022/06/18 08:07:35;;;;;;;5.83;5.43;;;31.50;93.80;;;;;;4916768;29;20224;-80
2022/06/18 08:10:02;;;;;;;5.30;4.80;;;31.50;93.10;;;;;;4898517;29;20291;-80
2022/06/18 08:12:31;;;;;;;5.10;4.70;;;31.70;94.50;;;;;;4899718;29;20677;-80
2022/06/18 08:14:59;;;;;;;5.47;5.00;;;32.10;94.90;;;;;;4916967;29;20724;-80
2022/06/18 08:17:26;;;;;;;4.97;4.63;;;32.40;94.00;;;;;;4917842;29;20227;-84
2022/06/18 08:19:53;;;;;;;4.63;4.32;;;32.60;93.40;;;;;;4912049;29;20207;-80
2022/06/18 08:22:23;;;;;;;4.80;4.50;;;32.70;94.40;;;;;;4897339;29;20207;-81
2022/06/18 08:24:50;;;;;;;5.10;4.70;;;32.80;93.40;;;;;;4910940;29;20231;-80
2022/06/18 08:27:18;;;;;;;5.40;4.90;;;32.50;92.90;;;;;;4901025;29;20224;-81
2022/06/18 08:29:46;;;;;;;5.63;5.18;;;32.30;91.90;;;;;;4912693;29;20204;-81
2022/06/18 08:32:13;;;;;;;5.90;5.40;;;32.20;94.20;;;;;;4900139;29;20200;-80
2022/06/18 08:34:39;;;;;;;5.32;4.78;;;32.40;93.70;;;;;;4901147;29;20228;-81
2022/06/18 08:37:08;;;;;;;5.72;5.00;;;32.50;94.00;;;;;;4914775;29;20259;-80
2022/06/18 08:39:36;;;;;;;4.88;4.47;;;32.00;92.70;;;;;;4911952;29;20204;-80
2022/06/18 08:42:16;;;;;;;4.80;4.40;;;31.80;94.60;;;;;;4916420;29;20278;-82
2022/06/18 08:44:56;;;;;;;4.95;4.55;;;32.20;94.40;;;;;;4898737;29;20280;-80
2022/06/18 08:47:36;;;;;;;5.20;4.80;;;32.60;94.40;;;;;;4885812;29;20283;-80
2022/06/18 08:50:16;;;;;;;5.18;4.68;;;33.00;93.30;;;;;;4894991;29;20459;-80
2022/06/18 08:53:03;;;;;;;5.35;4.95;;;33.00;93.40;;;;;;4915613;29;20200;-78
2022/06/18 08:55:41;;;;;;;4.82;4.45;;;33.20;93.00;;;;;;4910790;29;20226;-80
2022/06/18 08:58:21;;;;;;;4.70;4.40;;;33.40;92.60;;;;;;4915959;29;20214;-80
2022/06/18 09:00:56;;;;;;;5.22;4.68;;;33.30;92.20;;;;;;4899329;29;20204;-80
2022/06/18 09:03:34;;;;;;;5.15;4.65;;;33.40;92.60;;;;;;4909952;29;20267;-80
2022/06/18 09:06:13;;;;;;;5.07;4.60;;;33.40;91.30;;;;;;4915565;29;20251;-80
2022/06/18 09:08:56;;;;;;;4.90;4.50;;;33.60;91.10;;;;;;4899041;29;20200;-80
2022/06/18 09:11:31;;;;;;;4.45;4.15;;;33.80;90.20;;;;;;4913556;29;20207;-80
2022/06/18 09:14:05;;;;;;;4.40;4.10;;;34.30;89.20;;;;;;4897756;29;20235;-80
2022/06/18 09:16:38;;;;;;;4.75;4.35;;;34.20;82.80;;;;;;4910889;29;20223;-81
2022/06/18 09:19:08;;;;;;;4.80;4.43;;;34.40;85.10;;;;;;4897685;29;20615;-80
2022/06/18 09:21:41;;;;;;;4.90;4.50;;;34.50;81.50;;;;;;4894258;29;20748;-80
2022/06/18 09:24:10;;;;;;;4.60;4.20;;;34.80;84.70;;;;;;4888572;29;20260;-80
2022/06/18 09:26:40;;;;;;;4.88;4.47;;;34.90;80.20;;;;;;4896556;29;20731;-80
2022/06/18 09:29:14;;;;;;;2.90;2.55;;;35.10;83.40;;;;;;4889624;29;20255;-80
2022/06/18 09:31:47;;;;;;;3.15;2.50;;;35.20;79.90;;;;;;4898199;29;20211;-80
2022/06/18 09:34:22;;;;;;;4.20;3.88;;;35.30;80.60;;;;;;4910659;29;20271;-81
2022/06/18 09:36:54;;;;;;;4.85;4.53;;;35.30;78.10;;;;;;4897648;29;20746;-81
2022/06/18 09:39:25;;;;;;;4.60;4.30;;;35.10;78.80;;;;;;4916008;29;20642;-81
2022/06/18 09:42:06;;;;;;;4.85;4.53;;;35.10;76.90;;;;;;4915584;29;20278;-80
2022/06/18 09:44:40;;;;;;;4.53;4.22;;;35.10;77.80;;;;;;4915193;29;20663;-79
2022/06/18 09:47:13;;;;;;;4.80;4.40;;;35.10;77.80;;;;;;4901287;29;20260;-81
2022/06/18 09:49:41;;;;;;;4.75;4.35;;;35.20;78.50;;;;;;4900670;29;20219;-81
2022/06/18 09:52:13;;;;;;;4.88;4.53;;;35.10;79.50;;;;;;4919324;29;20191;-81
2022/06/18 09:54:46;;;;;;;4.60;4.20;;;35.40;80.60;;;;;;4902480;29;20238;-81
2022/06/18 09:57:17;;;;;;;4.80;4.40;;;35.60;77.80;;;;;;4894387;29;20693;-81
2022/06/18 09:59:49;;;;;;;4.50;4.20;;;35.70;77.90;;;;;;4898909;29;20302;-81
2022/06/18 10:02:21;;;;;;;4.93;4.47;;;35.80;78.00;;;;;;4920117;29;20223;-81
2022/06/18 10:07:40;;;;;;;4.78;4.43;;;35.90;76.60;;;;;;4898522;29;20540;-80
2022/06/18 10:10:13;;;;;;;4.72;4.43;;;36.00;76.80;;;;;;4901202;29;20738;-81
2022/06/18 10:12:45;;;;;;;4.70;4.35;;;35.80;74.30;;;;;;4916188;29;20203;-81
2022/06/18 10:15:15;;;;;;;5.38;4.88;;;35.50;77.50;;;;;;4904493;29;20239;-80
2022/06/18 10:17:56;;;;;;;4.75;4.45;;;35.50;78.10;;;;;;4902274;29;20227;-80
2022/06/18 10:20:32;;;;;;;4.93;4.50;;;35.40;76.70;;;;;;4910639;29;20208;-81
2022/06/18 10:23:09;;;;;;;4.97;4.50;;;35.40;75.20;;;;;;4913991;29;20207;-82
2022/06/18 10:25:42;;;;;;;4.53;4.20;;;35.20;77.80;;;;;;4897674;29;20677;-81
2022/06/18 10:28:17;;;;;;;5.47;4.22;;;35.20;78.10;;;;;;4918703;29;20192;-80
2022/06/18 10:30:54;;;;;;;4.15;3.95;;;35.00;77.90;;;;;;4901910;29;20255;-80
2022/06/18 10:33:31;;;;;;;5.78;4.22;;;35.10;77.00;;;;;;4919403;29;20657;-80
2022/06/18 10:36:08;;;;;;;4.70;4.30;;;35.00;77.50;;;;;;4920397;29;20247;-80
2022/06/18 10:39:09;;;;;;;5.05;4.40;;;34.40;75.70;;;;;;4900351;29;20207;-80
2022/06/18 10:41:46;;;;;;;4.80;4.40;;;34.20;77.70;;;;;;4915848;29;20230;-80
2022/06/18 10:44:24;;;;;;;4.50;4.07;;;34.20;76.60;;;;;;4913856;29;20705;-80
2022/06/18 10:47:05;;;;;;;4.82;4.30;;;34.10;80.20;;;;;;4899084;29;20207;-80
2022/06/18 10:49:33;;;;;;;4.57;4.20;;;34.20;80.70;;;;;;4911877;29;20292;-80
2022/06/18 10:52:01;;;;;;;4.80;4.50;;;34.00;79.30;;;;;;4918437;29;20275;-80
2022/06/18 10:54:31;;;;;;;4.80;4.40;;;33.90;81.90;;;;;;4897011;29;20221;-80
2022/06/18 10:56:58;;;;;;;4.78;4.45;;;33.80;77.80;;;;;;4898967;29;20228;-80
2022/06/18 10:59:31;;;;;;;4.70;4.30;;;33.90;80.60;;;;;;4918143;29;20220;-80
2022/06/18 11:02:05;;;;;;;5.63;4.43;;;34.00;81.00;;;;;;4898633;29;20253;-80
2022/06/18 11:04:33;;;;;;;4.25;3.95;;;33.70;77.70;;;;;;4901303;29;20287;-80
2022/06/18 11:07:02;;;;;;;5.43;4.47;;;33.60;79.40;;;;;;4900917;29;20197;-80
2022/06/18 11:09:32;;;;;;;4.70;4.30;;;33.60;79.60;;;;;;4919874;29;20204;-82
2022/06/18 11:12:01;;;;;;;4.55;4.25;;;33.40;79.50;;;;;;4903391;29;20212;-79
2022/06/18 11:14:28;;;;;;;5.60;4.63;;;33.50;82.40;;;;;;4916674;29;20223;-79
2022/06/18 11:16:57;;;;;;;4.75;4.32;;;33.30;77.90;;;;;;4915874;29;20630;-78
2022/06/18 11:19:30;;;;;;;5.55;4.63;;;33.10;79.20;;;;;;4901823;29;20201;-80
2022/06/18 11:22:08;;;;;;;4.28;4.00;;;33.20;81.20;;;;;;4899847;29;20251;-79
2022/06/18 11:24:38;;;;;;;4.65;4.35;;;33.30;80.70;;;;;;4898281;29;20588;-80
2022/06/18 11:27:07;;;;;;;4.32;4.03;;;33.50;81.60;;;;;;4897499;29;20216;-80
2022/06/18 11:29:36;;;;;;;4.80;4.40;;;33.30;82.60;;;;;;4900513;29;20204;-80
2022/06/18 11:32:10;;;;;;;4.43;4.03;;;33.20;82.10;;;;;;4898696;29;20264;-80
2022/06/18 11:34:40;;;;;;;4.65;4.25;;;33.30;82.80;;;;;;4901867;29;20439;-80
2022/06/18 11:37:20;;;;;;;5.60;4.55;;;33.30;81.70;;;;;;4919779;29;20212;-79
2022/06/18 11:39:54;;;;;;;4.75;4.35;;;33.20;83.00;;;;;;4896124;29;20451;-80
2022/06/18 11:42:27;;;;;;;4.70;4.30;;;33.30;83.40;;;;;;4901578;29;20217;-80
2022/06/18 11:45:03;;;;;;;5.32;4.53;;;33.30;81.90;;;;;;4915513;29;20234;-80
2022/06/18 11:47:35;;;;;;;5.10;4.70;;;33.30;80.20;;;;;;4911731;29;20234;-81
2022/06/18 11:50:07;;;;;;;4.85;4.45;;;33.20;80.70;;;;;;4892497;29;20208;-81
2022/06/18 11:52:42;;;;;;;5.20;4.70;;;32.90;80.80;;;;;;4901409;29;20204;-81
2022/06/18 11:55:22;;;;;;;5.00;4.60;;;32.80;81.40;;;;;;4914348;29;20231;-81
2022/06/18 11:57:56;;;;;;;5.18;4.75;;;32.80;82.10;;;;;;4899125;29;20639;-81
2022/06/18 12:00:26;;;;;;;5.10;4.70;;;32.90;82.60;;;;;;4917816;29;20259;-80
2022/06/18 12:02:57;;;;;;;4.90;4.40;;;32.80;81.50;;;;;;4898744;29;20212;-81
2022/06/18 12:05:29;;;;;;;5.03;4.63;;;32.70;81.30;;;;;;4917704;29;20224;-81
2022/06/18 12:08:00;;;;;;;5.30;4.50;;;32.90;81.10;;;;;;4915895;29;20284;-80
2022/06/18 12:10:40;;;;;;;4.88;4.47;;;32.80;81.50;;;;;;4915374;29;20438;-79
2022/06/18 12:13:16;;;;;;;4.22;3.92;;;32.90;82.10;;;;;;4908048;29;20442;-80
2022/06/18 12:15:48;;;;;;;4.63;4.18;;;33.10;84.30;;;;;;4893097;29;20283;-80
2022/06/18 12:18:19;;;;;;;4.70;4.30;;;33.10;82.50;;;;;;4890357;29;20224;-78
2022/06/18 12:21:02;;;;;;;4.57;4.17;;;33.10;81.70;;;;;;4896925;29;20207;-78
2022/06/18 12:23:44;;;;;;;5.03;4.23;;;33.00;81.90;;;;;;4915658;29;20575;-80
2022/06/18 12:26:19;;;;;;;6.13;4.60;;;33.10;82.80;;;;;;4921447;29;20224;-80
2022/06/18 12:29:03;;;;;;;4.93;4.53;;;33.10;82.90;;;;;;4916272;29;20749;-80
2022/06/18 12:31:36;;;;;;;4.90;4.50;;;33.10;82.30;;;;;;4896579;29;20213;-82
2022/06/18 12:34:12;;;;;;;7.60;5.03;;;33.20;82.90;;;;;;4893775;29;20612;-81
2022/06/18 12:36:44;;;;;;;5.40;4.63;;;33.20;82.00;;;;;;4899909;29;20804;-80
2022/06/18 12:39:21;;;;;;;7.80;4.77;;;33.00;79.80;;;;;;4914370;29;20259;-80
2022/06/18 12:41:52;;;;;;;7.07;4.60;;;32.90;80.70;;;;;;4914890;29;20204;-80
2022/06/18 12:44:36;;;;;;;4.37;4.00;;;32.90;82.90;;;;;;4901076;29;20235;-80
2022/06/18 12:47:09;;;;;;;8.60;5.03;;;33.10;81.30;;;;;;4899539;29;20271;-80
2022/06/18 12:49:42;;;;;;;7.83;4.70;;;32.90;80.50;;;;;;4916548;29;20208;-80
2022/06/18 12:52:16;;;;;;;6.63;4.67;;;32.90;80.50;;;;;;4893357;29;20205;-80
2022/06/18 12:55:01;;;;;;;7.53;5.47;;;32.90;80.50;;;;;;4892006;29;20228;-79
2022/06/18 12:57:38;;;;;;;10.50;5.50;;;32.80;77.10;;;;;;4915138;29;20220;-79
2022/06/18 13:00:10;;;;;;;11.90;5.17;;;32.90;75.30;;;;;;4898663;29;20215;-80
2022/06/18 13:03:04;;;;;;;9.87;5.17;;;32.90;73.70;;;;;;4909332;29;20260;-80
2022/06/18 13:05:40;;;;;;;5.30;4.40;;;33.10;73.70;;;;;;4910702;29;20292;-80
2022/06/18 13:08:19;;;;;;;8.80;4.53;;;33.20;75.20;;;;;;4899295;29;20195;-83
2022/06/18 13:10:54;;;;;;;14.38;5.55;;;33.30;74.20;;;;;;4906560;29;20211;-81
2022/06/18 13:13:36;;;;;;;12.93;5.30;;;33.30;71.80;;;;;;4909355;29;20581;-80
2022/06/18 13:16:07;;;;;;;13.33;5.20;;;33.40;71.60;;;;;;4914666;29;20299;-80
2022/06/18 13:18:40;;;;;;;8.47;4.80;;;33.40;72.20;;;;;;4916310;29;20219;-82
2022/06/18 13:21:09;;;;;;;12.20;4.87;;;33.30;70.70;;;;;;4898175;29;20200;-79
2022/06/18 13:29:33;;;;;;;15.27;5.60;;;33.30;70.90;;;;;;4870483;29;20209;-80